Terminal Aerodrome Forecast
Issued by NWS

Home | Current Version | Previous Version | Text Only | Print | Product List | Glossary On
Versions: 1 2 3 4 5 6 7 8 9 10 11 12
000
FTUS46 KMTR 021739
TAFOAK
TAF
KOAK 021739Z 0218/0324 26005KT P6SM FEW010 SCT015 BKN200
     FM022000 27011KT P6SM FEW015 SCT200
     FM030400 27006KT P6SM SCT015 BKN150
     FM030700 30006KT P6SM OVC015
     FM031830 29007KT P6SM SCT018
     FM032100 28012KT P6SM FEW020=

USA.gov is the U.S. government's official web portal to all federal, state and local government web resources and services.